Bei Facebook empfehlenBei Twitter postenGoogle plusPinterest

Das Wetter im Erzgebirge am 18.04.2015

Wetter und Klima am 18.04.2015 Holzhau im Erzgebirge (630m ü.NN)
Letzte gemessene Temperatur und Uhrzeit der Messung23:45:00 Uhr-2.70 °C
Temperatur (Maximum / Höchstwert) und Uhrzeit der Messung16:45:00 Uhr7.20 °C
Temperatur (Minimum / Tiefstwert) und Uhrzeit der Messung23:45:00-2.70 °C
Errechneter Absolutwert der Temperaturschwankungen zwischen Tmin und Tmax des Tages9.90 K
Errechnete Tagesmitteltemperatur2.23333 °C
Gesamt - Niederschlag des Tages (in flüssiger Form)2.07 Liter / m²
Luftdruck (Maximum / Höchstwert) und Zeitpunkt der Messung14:15:00 Uhr1021.00 hPa
Luftdruck (Minimum / Tiefstwert) und Zeitpunkt der Messung00:00:00 Uhr1014.90 hPa
Errechneter Absolutwert der Luftdruckschwankungen des Tages6.10 hPa
Höchste gemessene Windgeschwindigkeit und Uhrzeit der Messung14:00:00 Uhr12.24 km/h
Errechnete Windhäufigkeit in Relation zu den Messwerten des Tages9.37500 %
Niedrigste Windkühle (Windchill) und Zeitpunkt der Messung23:45:00 Uhr-2.70 °C
Taupunkt (Maximum / Höchstwert) und Uhrzeit der Messung11:30:00 Uhr1.00 °C
Taupunkt (Minimum / Tiefstwert) und Uhrzeit der Messung22:45:00-5.20 °C
Anzahl der automatisch eingelesenen Messwerte 96

Detaillierte Wetter- und Klima- Messwerte für den 18.04.2015 in Holzhau im Erzgebirge (630m ü.NN)
ZeitTemperaturLuftdruckRel. LuftfeuchteWindWindrichtungWindchillTaupunktNiederschlag l/m²
23:45:00-2.70 °C1020.10 hPa85.00 %-5.10 °C2.07
23:30:00-2.50 °C1020.20 hPa84.00 %-5.10 °C2.07
23:15:00-2.40 °C1020.20 hPa84.00 %-5.00 °C2.07
23:00:00-2.40 °C1020.10 hPa84.00 %-5.00 °C2.07
22:45:00-2.20 °C1020.20 hPa82.00 %-5.20 °C2.07
22:30:00-1.90 °C1020.20 hPa82.00 %-4.90 °C2.07
22:15:00-1.60 °C1020.10 hPa81.00 %-4.80 °C2.07
22:00:00-1.30 °C1020.10 hPa80.00 %-4.70 °C2.07
21:45:00-0.80 °C1020.10 hPa79.00 %-4.40 °C2.07
21:30:00-0.20 °C1020.20 hPa78.00 %-4.00 °C2.07
21:15:000.10 °C1020.30 hPa77.00 %-3.40 °C2.07
21:00:000.40 °C1020.20 hPa75.00 %-3.50 °C2.07
20:45:001.30 °C1020.10 hPa73.00 %-3.00 °C2.07
20:30:002.20 °C1019.80 hPa71.00 %-2.50 °C2.07
20:15:003.00 °C1019.90 hPa68.00 %-2.30 °C2.07
20:00:003.80 °C1019.80 hPa66.00 %-2.00 °C2.07
19:45:004.40 °C1019.80 hPa66.00 %-1.40 °C2.07
19:30:004.80 °C1019.80 hPa65.00 %-1.20 °C2.07
19:15:005.20 °C1019.80 hPa64.00 %-1.00 °C2.07
19:00:005.10 °C1019.80 hPa65.00 %-0.90 °C2.07
18:45:005.10 °C1019.70 hPa63.00 %-1.30 °C2.07
18:30:005.60 °C1019.90 hPa62.00 %-1.10 °C2.07
18:15:005.60 °C1020.00 hPa62.00 %-1.10 °C2.07
18:00:005.50 °C1020.10 hPa62.00 %-1.20 °C2.07
17:45:005.80 °C1020.20 hPa62.00 %-0.90 °C2.07
17:30:005.90 °C1020.20 hPa61.00 %8.64 km/hWNW4.00 °C-1.00 °C2.07
17:15:006.40 °C1020.30 hPa59.00 %-1.00 °C2.07
17:00:006.70 °C1020.30 hPa59.00 %-0.70 °C2.07
16:45:007.20 °C1020.20 hPa59.00 %-0.30 °C2.07
16:30:006.60 °C1020.30 hPa59.00 %-0.80 °C2.07
16:15:007.10 °C1020.20 hPa58.00 %-0.60 °C2.07
16:00:006.80 °C1020.50 hPa61.00 %-0.20 °C2.07
15:45:006.40 °C1020.60 hPa58.00 %-1.20 °C2.07
15:30:006.90 °C1020.70 hPa58.00 %8.28 km/hWNW5.30 °C-0.80 °C2.07
15:15:007.00 °C1020.60 hPa58.00 %-0.70 °C2.07
15:00:006.50 °C1020.60 hPa61.00 %-0.50 °C2.07
14:45:006.40 °C1020.80 hPa63.00 %6.84 km/hWNW5.10 °C-0.10 °C2.07
14:30:006.10 °C1020.90 hPa63.00 %8.64 km/hNW4.30 °C-0.40 °C2.07
14:15:005.40 °C1021.00 hPa65.00 %-0.60 °C2.07
14:00:006.10 °C1020.90 hPa63.00 %12.24 km/hWNW3.50 °C-0.40 °C2.07
13:45:006.60 °C1020.80 hPa63.00 %0.10 °C2.07
13:30:006.30 °C1020.80 hPa64.00 %0.00 °C2.07
13:15:005.80 °C1020.80 hPa66.00 %0.00 °C2.07
13:00:005.20 °C1020.90 hPa67.00 %-0.40 °C2.07
12:45:005.40 °C1020.90 hPa67.00 %-0.20 °C2.07
12:30:005.80 °C1020.60 hPa66.00 %0.00 °C2.07
12:15:005.90 °C1020.60 hPa67.00 %9.72 km/hNW3.80 °C0.30 °C2.07
12:00:005.90 °C1020.70 hPa68.00 %9.00 km/hWNW4.00 °C0.50 °C2.07
11:45:005.30 °C1020.70 hPa72.00 %0.70 °C2.07
11:30:005.40 °C1020.80 hPa73.00 %9.00 km/hNO3.40 °C1.00 °C2.07
11:15:004.90 °C1020.50 hPa75.00 %0.90 °C2.07
11:00:004.10 °C1020.50 hPa76.00 %0.30 °C2.07
10:45:004.10 °C1020.30 hPa79.00 %0.80 °C1.56
10:30:003.30 °C1020.30 hPa84.00 %0.90 °C1.04
10:15:002.50 °C1020.10 hPa83.00 %-0.10 °C1.04
10:00:002.40 °C1019.70 hPa85.00 %0.10 °C0.52
09:45:002.30 °C1019.60 hPa87.00 %0.40 °C 
09:30:001.60 °C1019.50 hPa88.00 %-0.20 °C 
09:15:001.50 °C1019.30 hPa89.00 %-0.10 °C 
09:00:001.30 °C1019.10 hPa89.00 %-0.30 °C 
08:45:001.40 °C1019.00 hPa90.00 %-0.10 °C 
08:30:000.90 °C1019.00 hPa91.00 %3.96 km/hWNW0.90 °C-0.40 °C 
08:15:000.70 °C1018.80 hPa91.00 %-0.60 °C 
08:00:000.70 °C1018.60 hPa91.00 %-0.60 °C 
07:45:000.70 °C1018.30 hPa91.00 %-0.60 °C 
07:30:000.60 °C1018.10 hPa91.00 %-0.70 °C 
07:15:000.60 °C1017.80 hPa91.00 %-0.70 °C 
07:00:000.60 °C1017.70 hPa91.00 %-0.70 °C 
06:45:000.60 °C1017.50 hPa91.00 %-0.70 °C 
06:30:000.50 °C1017.30 hPa91.00 %-0.80 °C 
06:15:000.40 °C1017.10 hPa91.00 %-0.90 °C 
06:00:000.50 °C1016.90 hPa91.00 %-0.80 °C 
05:45:000.60 °C1016.90 hPa91.00 %-0.70 °C 
05:30:000.80 °C1016.80 hPa91.00 %-0.50 °C 
05:15:000.80 °C1016.60 hPa90.00 %-0.60 °C 
05:00:000.60 °C1016.50 hPa90.00 %-0.80 °C 
04:45:000.40 °C1016.40 hPa90.00 %-1.00 °C 
04:30:000.30 °C1016.50 hPa90.00 %-1.10 °C 
04:15:000.10 °C1016.40 hPa90.00 %-1.30 °C 
04:00:00-0.20 °C1016.50 hPa89.00 %-2.00 °C 
03:45:00-0.60 °C1016.40 hPa89.00 %-2.40 °C 
03:30:00-0.80 °C1016.20 hPa89.00 %-2.60 °C 
03:15:00-1.10 °C1016.20 hPa89.00 %-2.90 °C 
03:00:00-1.40 °C1016.10 hPa89.00 %-3.20 °C 
02:45:00-1.60 °C1016.00 hPa89.00 %-3.40 °C 
02:30:00-1.70 °C1016.00 hPa88.00 %-3.60 °C 
02:15:00-1.90 °C1015.90 hPa88.00 %-3.80 °C 
02:00:00-2.10 °C1015.80 hPa87.00 %-4.20 °C 
01:45:00-1.70 °C1015.90 hPa87.00 %-3.80 °C 
01:30:00-1.50 °C1015.80 hPa87.00 %-3.60 °C 
01:15:00-1.10 °C1015.70 hPa87.00 %-3.20 °C 
01:00:00-1.10 °C1015.40 hPa87.00 %-3.20 °C 
00:45:00-1.10 °C1015.30 hPa87.00 %-3.20 °C 
00:30:00-0.90 °C1015.10 hPa86.00 %-3.20 °C 
00:15:00-0.70 °C1015.10 hPa86.00 %-3.00 °C 
00:00:00-0.90 °C1014.90 hPa86.00 %-3.20 °C 

Permanenter Link zu dieser Seite: Wetter im Erzgebirge am 18.04.2015
Performance-Info: Die Erstellung der Seite / Statistik(en) / Tabelle(n) erforderte 5 Datenbankserver-Abfrage(n) und dauerte 128 Millisekunden. (Dieser Messwert ist von der Gesamt-Auslastung des Servers abhängig.)
Erzgebirge - Wetter | Erzgebirge - Wetter (Mobilgeräte) | Komplette Klimadatenbank